Time;durP1;ratioP1;P1;durP2;ratioP2;P2;SDS_P1;SDS_P2;PMS_P1;PMS_P2;Temp;Humidity;BMP_temperature;BMP_pressure;BME280_temperature;BME280_humidity;BME280_pressure;Samples;Min_cycle;Max_cycle;Signal;HPM_P1;HPM_P2
2023/07/30 00:02:18;;;;;;;14.95;4.55;;;;;;;15.83;100.00;100667.06;4987914;28;20081;-74
2023/07/30 00:04:45;;;;;;;12.45;4.47;;;;;;;15.85;100.00;100670.97;4997655;28;20568;-73
2023/07/30 00:07:12;;;;;;;15.02;4.72;;;;;;;15.79;100.00;100675.59;4994084;28;20101;-74
2023/07/30 00:09:39;;;;;;;14.73;4.60;;;;;;;15.76;100.00;100665.28;4986491;28;20479;-74
2023/07/30 00:12:07;;;;;;;13.52;4.65;;;;;;;15.73;100.00;100671.78;4989183;28;20086;-73
2023/07/30 00:14:33;;;;;;;10.60;4.30;;;;;;;15.73;100.00;100671.78;4991280;28;20362;-74
2023/07/30 00:17:00;;;;;;;15.15;4.93;;;;;;;15.67;100.00;100679.25;4988677;28;20518;-73
2023/07/30 00:19:27;;;;;;;18.27;4.82;;;;;;;15.67;100.00;100682.03;4988802;28;20105;-74
2023/07/30 00:21:54;;;;;;;15.50;5.38;;;;;;;15.64;100.00;100673.75;4985956;28;20139;-73
2023/07/30 00:24:20;;;;;;;19.02;6.05;;;;;;;15.56;100.00;100666.81;4988168;28;20509;-74
2023/07/30 00:26:47;;;;;;;17.10;5.72;;;;;;;15.62;100.00;100684.59;4987524;28;20086;-73
2023/07/30 00:29:13;;;;;;;14.45;5.38;;;;;;;15.55;100.00;100676.44;4988203;28;20124;-73
2023/07/30 00:31:40;;;;;;;13.05;4.78;;;;;;;15.46;100.00;100676.38;4990721;28;20136;-74
2023/07/30 00:34:07;;;;;;;13.25;5.20;;;;;;;15.48;100.00;100679.50;4987268;28;20058;-74
2023/07/30 00:36:33;;;;;;;16.70;5.22;;;;;;;15.39;100.00;100682.97;4986919;28;20054;-74
2023/07/30 00:39:00;;;;;;;11.73;4.80;;;;;;;15.42;100.00;100690.50;4986610;28;20182;-74
2023/07/30 00:41:26;;;;;;;13.20;4.75;;;;;;;15.37;100.00;100682.66;4987114;28;20046;-74
2023/07/30 00:43:53;;;;;;;16.42;5.13;;;;;;;15.34;100.00;100683.53;4987202;28;20057;-72
2023/07/30 00:46:20;;;;;;;15.88;4.82;;;;;;;15.29;100.00;100681.28;4980232;28;20051;-73
2023/07/30 00:48:47;;;;;;;15.40;4.82;;;;;;;15.24;100.00;100667.88;4981478;28;20435;-73
2023/07/30 00:51:15;;;;;;;13.15;5.20;;;;;;;15.19;100.00;100674.03;4988057;28;20042;-72
2023/07/30 00:53:41;;;;;;;19.27;5.30;;;;;;;15.18;100.00;100678.06;4985666;28;20053;-73
2023/07/30 00:56:08;;;;;;;12.13;4.55;;;;;;;15.08;100.00;100686.81;4988230;28;20466;-74
2023/07/30 00:58:34;;;;;;;14.75;4.65;;;;;;;15.05;100.00;100688.47;4986009;28;20093;-73
2023/07/30 01:01:01;;;;;;;11.93;4.38;;;;;;;14.92;100.00;100694.09;4988632;28;20082;-73
2023/07/30 01:03:28;;;;;;;14.55;4.65;;;;;;;14.98;100.00;100696.34;4985646;28;20046;-73
2023/07/30 01:05:54;;;;;;;14.30;5.13;;;;;;;14.84;100.00;100684.34;4992075;28;20566;-73
2023/07/30 01:08:21;;;;;;;16.02;5.45;;;;;;;14.89;100.00;100683.78;4986192;28;20120;-73
2023/07/30 01:10:48;;;;;;;12.57;5.22;;;;;;;14.92;100.00;100690.50;4994784;28;20046;-72
2023/07/30 01:13:15;;;;;;;17.63;5.03;;;;;;;14.84;100.00;100687.16;4983260;28;20132;-73
2023/07/30 01:15:43;;;;;;;14.60;4.93;;;;;;;14.83;100.00;100691.16;4988097;28;20129;-74
2023/07/30 01:18:10;;;;;;;13.38;4.43;;;;;;;14.80;100.00;100682.91;4994984;28;20100;-73
2023/07/30 01:20:36;;;;;;;16.88;4.63;;;;;;;14.77;100.00;100686.59;4990006;28;20097;-74
2023/07/30 01:23:03;;;;;;;14.70;4.72;;;;;;;14.81;100.00;100684.47;4991516;28;20113;-73
2023/07/30 01:25:35;;;;;;;12.18;4.75;;;;;;;14.76;100.00;100688.59;4991466;28;20053;-73
2023/07/30 01:28:04;;;;;;;11.52;4.45;;;;;;;14.75;100.00;100691.84;4987416;28;20062;-73
2023/07/30 01:30:52;;;;;;;14.13;5.15;;;;;;;14.70;100.00;100690.41;4995224;28;20054;-73
2023/07/30 01:33:19;;;;;;;12.93;4.43;;;;;;;14.71;100.00;100696.75;4989965;28;20045;-73
2023/07/30 01:35:45;;;;;;;14.45;4.63;;;;;;;14.61;100.00;100700.66;4985850;28;20054;-74
2023/07/30 01:38:13;;;;;;;13.93;5.43;;;;;;;14.60;100.00;100699.09;4995384;28;20129;-71
2023/07/30 01:40:40;;;;;;;14.30;5.00;;;;;;;14.51;100.00;100704.56;4972731;28;20050;-73
2023/07/30 01:43:07;;;;;;;12.13;5.18;;;;;;;14.51;100.00;100712.94;4990212;28;20213;-73
2023/07/30 01:45:34;;;;;;;18.63;5.60;;;;;;;14.42;100.00;100707.25;4989589;28;20054;-73
2023/07/30 01:48:01;;;;;;;16.02;5.65;;;;;;;14.37;100.00;100713.34;4990206;28;20529;-73
2023/07/30 01:50:27;;;;;;;12.13;4.57;;;;;;;14.31;100.00;100724.28;4971240;28;20061;-73
2023/07/30 01:52:54;;;;;;;14.63;5.05;;;;;;;14.30;100.00;100721.94;4988126;28;20133;-72
2023/07/30 01:55:20;;;;;;;16.05;6.13;;;;;;;14.33;100.00;100715.47;4989274;28;20050;-74
2023/07/30 01:57:47;;;;;;;17.40;6.10;;;;;;;14.25;100.00;100712.06;4987160;28;20101;-72
2023/07/30 02:00:14;;;;;;;18.50;7.03;;;;;;;14.21;100.00;100724.59;4981437;28;20572;-73
2023/07/30 02:02:40;;;;;;;15.05;6.65;;;;;;;14.26;100.00;100732.44;4988223;28;20408;-74
2023/07/30 02:05:07;;;;;;;14.73;6.38;;;;;;;14.23;100.00;100722.13;4990532;28;20529;-71
2023/07/30 02:07:33;;;;;;;19.10;6.93;;;;;;;14.19;100.00;100732.63;4982735;28;20140;-72
2023/07/30 02:10:00;;;;;;;19.20;6.43;;;;;;;14.21;100.00;100742.16;4983108;28;20466;-72
2023/07/30 02:12:27;;;;;;;16.70;5.95;;;;;;;14.12;100.00;100733.63;4990810;28;20601;-73
2023/07/30 02:14:53;;;;;;;13.77;6.13;;;;;;;14.11;100.00;100737.63;4990183;28;20141;-72
2023/07/30 02:17:20;;;;;;;19.13;6.93;;;;;;;14.14;100.00;100741.53;4990585;28;20108;-71
2023/07/30 02:19:46;;;;;;;15.13;6.82;;;;;;;14.05;100.00;100744.97;4990441;28;20078;-72
2023/07/30 02:22:13;;;;;;;15.07;6.50;;;;;;;14.04;100.00;100742.66;4989882;28;20054;-71
2023/07/30 02:24:39;;;;;;;14.90;6.30;;;;;;;14.08;100.00;100738.50;4972571;28;20137;-70
2023/07/30 02:27:06;;;;;;;14.52;6.15;;;;;;;13.99;100.00;100737.59;4989906;28;20060;-73
2023/07/30 02:29:32;;;;;;;15.52;6.35;;;;;;;13.98;100.00;100742.38;4990147;28;20050;-73
2023/07/30 02:31:59;;;;;;;19.30;8.27;;;;;;;13.96;100.00;100744.03;4992496;28;20050;-72
2023/07/30 02:34:26;;;;;;;15.63;5.53;;;;;;;13.87;100.00;100747.47;4989779;28;20046;-73
2023/07/30 02:36:53;;;;;;;17.67;6.32;;;;;;;13.93;100.00;100753.31;4989496;28;20433;-71
2023/07/30 02:39:20;;;;;;;21.65;6.72;;;;;;;13.91;100.00;100741.81;4990978;28;20050;-72
2023/07/30 02:41:46;;;;;;;15.13;6.80;;;;;;;13.93;100.00;100745.72;4988807;28;20471;-72
2023/07/30 02:44:13;;;;;;;13.65;6.32;;;;;;;13.89;100.00;100741.44;4989988;28;20042;-73
2023/07/30 02:46:39;;;;;;;20.35;7.00;;;;;;;13.81;100.00;100735.25;4990221;28;20669;-70
2023/07/30 02:49:06;;;;;;;16.30;7.68;;;;;;;13.74;100.00;100740.25;4989869;28;20050;-73
2023/07/30 02:51:32;;;;;;;20.83;9.00;;;;;;;13.74;100.00;100748.63;4989271;28;20681;-73
2023/07/30 02:54:04;;;;;;;17.88;8.48;;;;;;;13.74;100.00;100749.41;4990690;28;20101;-73
2023/07/30 02:56:31;;;;;;;24.52;8.82;;;;;;;13.75;100.00;100751.00;4989928;28;20104;-73
2023/07/30 02:58:58;;;;;;;16.60;8.23;;;;;;;13.73;100.00;100759.03;4989262;28;20109;-73
2023/07/30 03:01:26;;;;;;;22.80;9.10;;;;;;;13.74;100.00;100751.44;4989964;28;20137;-74
2023/07/30 03:03:52;;;;;;;19.65;8.30;;;;;;;13.71;100.00;100746.72;4988510;28;20056;-71
2023/07/30 03:06:19;;;;;;;19.88;8.55;;;;;;;13.76;100.00;100748.97;4989408;28;20088;-72
2023/07/30 03:08:45;;;;;;;18.58;8.13;;;;;;;13.77;100.00;100754.13;4989219;28;20050;-73
2023/07/30 03:11:13;;;;;;;19.10;7.70;;;;;;;13.72;100.00;100753.88;4989325;28;20050;-73
2023/07/30 03:13:40;;;;;;;13.57;6.90;;;;;;;13.67;100.00;100757.19;4988616;28;20050;-73
2023/07/30 03:16:06;;;;;;;17.35;6.75;;;;;;;13.68;100.00;100758.75;4989124;28;20050;-72
2023/07/30 03:18:33;;;;;;;16.13;6.78;;;;;;;13.67;100.00;100748.81;4989197;28;20074;-72
2023/07/30 03:21:00;;;;;;;22.38;6.93;;;;;;;13.67;100.00;100748.81;4981920;28;20050;-72
2023/07/30 03:23:27;;;;;;;16.48;6.88;;;;;;;13.64;100.00;100747.66;4989140;28;20054;-72
2023/07/30 03:25:54;;;;;;;15.60;7.18;;;;;;;13.59;100.00;100745.41;4988786;28;20050;-73
2023/07/30 03:28:21;;;;;;;18.70;6.82;;;;;;;13.53;100.00;100760.31;4987363;28;20211;-72
2023/07/30 03:30:47;;;;;;;15.65;6.53;;;;;;;13.50;100.00;100762.00;4989127;28;20076;-72
2023/07/30 03:33:14;;;;;;;18.58;6.68;;;;;;;13.53;100.00;100763.13;4987419;28;20049;-73
2023/07/30 03:35:40;;;;;;;17.60;6.65;;;;;;;13.48;100.00;100749.69;4988742;28;20053;-72
2023/07/30 03:38:07;;;;;;;19.73;7.13;;;;;;;13.39;100.00;100757.84;4988903;28;20129;-73
2023/07/30 03:40:33;;;;;;;16.65;6.18;;;;;;;13.38;100.00;100762.66;4988864;28;20124;-71
2023/07/30 03:43:00;;;;;;;14.68;5.75;;;;;;;13.38;100.00;100764.66;4981708;28;20141;-72
2023/07/30 03:45:26;;;;;;;18.42;6.97;;;;;;;13.35;100.00;100768.31;4994619;28;20066;-73
2023/07/30 03:47:53;;;;;;;16.27;6.72;;;;;;;13.41;100.00;100767.38;4987966;28;20548;-72
2023/07/30 03:50:20;;;;;;;15.93;6.53;;;;;;;13.38;100.00;100764.66;4992581;28;20053;-72
2023/07/30 03:52:46;;;;;;;20.42;5.68;;;;;;;13.41;100.00;100772.97;4990351;28;20674;-72
2023/07/30 03:55:13;;;;;;;15.68;6.10;;;;;;;13.41;100.00;100769.38;4988368;28;20043;-72
2023/07/30 03:57:40;;;;;;;15.85;5.85;;;;;;;13.41;100.00;100772.19;4988433;28;20471;-72
2023/07/30 04:00:07;;;;;;;16.23;5.45;;;;;;;13.43;100.00;100775.34;4987210;28;20070;-72
2023/07/30 04:02:33;;;;;;;15.50;5.65;;;;;;;13.39;100.00;100781.00;4971501;28;20088;-73
2023/07/30 04:05:00;;;;;;;16.05;5.72;;;;;;;13.37;100.00;100788.22;4980882;28;20053;-73
2023/07/30 04:07:27;;;;;;;15.93;6.07;;;;;;;13.36;100.00;100792.22;4988671;28;20105;-73
2023/07/30 04:09:53;;;;;;;19.92;5.75;;;;;;;13.40;100.00;100793.72;4988990;28;20062;-73
2023/07/30 04:12:21;;;;;;;17.13;4.60;;;;;;;13.33;100.00;100793.88;4988666;28;20077;-72
2023/07/30 04:14:47;;;;;;;15.43;5.63;;;;;;;13.34;100.00;100800.28;4992222;28;20108;-73
2023/07/30 04:17:14;;;;;;;16.10;5.45;;;;;;;13.32;100.00;100789.53;4988817;28;20089;-72
2023/07/30 04:19:40;;;;;;;8.82;4.03;;;;;;;13.33;100.00;100782.72;4988912;28;20466;-73
2023/07/30 04:22:07;;;;;;;15.30;5.25;;;;;;;13.42;100.00;100782.94;4988497;28;20088;-73
2023/07/30 04:24:33;;;;;;;15.50;5.72;;;;;;;13.37;100.00;100783.41;4988539;28;20046;-72
2023/07/30 04:27:00;;;;;;;16.08;6.10;;;;;;;13.42;100.00;100790.50;4980516;28;20517;-72
2023/07/30 04:29:27;;;;;;;14.65;5.53;;;;;;;13.44;100.00;100786.06;4984302;28;20133;-73
2023/07/30 04:31:53;;;;;;;17.63;6.07;;;;;;;13.45;100.00;100789.66;4990186;28;20054;-73
2023/07/30 04:34:20;;;;;;;20.27;5.88;;;;;;;13.55;100.00;100788.63;4988231;28;20145;-72
2023/07/30 04:36:46;;;;;;;17.98;6.00;;;;;;;13.54;100.00;100787.81;4987172;28;20070;-72
2023/07/30 04:39:13;;;;;;;17.27;5.30;;;;;;;13.58;100.00;100782.16;4988711;28;20053;-71
2023/07/30 04:41:39;;;;;;;16.50;5.50;;;;;;;13.63;100.00;100793.59;4988694;28;20058;-72
2023/07/30 04:44:06;;;;;;;8.27;2.00;;;;;;;13.68;100.00;100786.69;4989435;28;20125;-73
2023/07/30 04:46:34;;;;;;;13.40;5.38;;;;;;;13.79;100.00;100776.03;4991451;28;20057;-73
2023/07/30 04:49:03;;;;;;;13.35;4.95;;;;;;;13.74;100.00;100784.97;4980627;28;20407;-73
2023/07/30 04:51:30;;;;;;;15.10;5.10;;;;;;;13.86;100.00;100782.25;4990321;28;20108;-72
2023/07/30 04:53:56;;;;;;;15.45;5.03;;;;;;;13.83;100.00;100787.91;4991732;28;20046;-72
2023/07/30 04:56:24;;;;;;;15.57;4.22;;;;;;;13.85;100.00;100785.47;4991414;28;20477;-72
2023/07/30 04:58:51;;;;;;;13.38;5.03;;;;;;;13.91;100.00;100772.53;4993644;28;20902;-72
2023/07/30 05:01:17;;;;;;;14.80;4.45;;;;;;;13.93;100.00;100779.25;4991159;28;20149;-72
2023/07/30 05:03:44;;;;;;;13.77;4.90;;;;;;;13.99;100.00;100779.50;4991482;28;20072;-72
2023/07/30 05:06:10;;;;;;;17.27;5.38;;;;;;;14.01;100.00;100777.06;4991230;28;20050;-73
2023/07/30 05:08:37;;;;;;;8.40;2.95;;;;;;;13.97;100.00;100779.16;4991961;28;20133;-73
2023/07/30 05:11:03;;;;;;;13.05;4.28;;;;;;;14.02;100.00;100776.63;4991356;28;20071;-73
2023/07/30 05:13:30;;;;;;;14.10;5.05;;;;;;;14.18;100.00;100767.44;4991302;28;20137;-72
2023/07/30 05:15:56;;;;;;;10.63;2.67;;;;;;;14.18;100.00;100761.84;4988608;28;20137;-73
2023/07/30 05:18:23;;;;;;;6.35;1.88;;;;;;;14.18;100.00;100765.41;4991586;28;20521;-73
2023/07/30 05:20:49;;;;;;;16.40;5.15;;;;;;;14.21;100.00;100761.72;4990328;28;20054;-72
2023/07/30 05:23:16;;;;;;;11.30;4.18;;;;;;;14.08;100.00;100760.88;4989827;28;20050;-70
2023/07/30 05:25:43;;;;;;;13.15;3.55;;;;;;;14.32;100.00;100753.06;4990178;28;20108;-73
2023/07/30 05:28:09;;;;;;;18.13;4.88;;;;;;;14.37;100.00;100766.47;4989577;28;20058;-73
2023/07/30 05:30:36;;;;;;;14.18;4.13;;;;;;;14.20;100.00;100764.94;4988533;28;20053;-72
2023/07/30 05:33:02;;;;;;;14.77;4.93;;;;;;;14.26;100.00;100763.19;4991123;28;20444;-72
2023/07/30 05:35:29;;;;;;;22.05;9.07;;;;;;;14.28;100.00;100763.56;4990583;28;20042;-72
2023/07/30 05:37:59;;;;;;;20.60;6.00;;;;;;;14.33;100.00;100771.38;4989750;28;20513;-72
2023/07/30 05:40:25;;;;;;;27.90;9.80;;;;;;;14.48;100.00;100756.59;4991412;28;20058;-72
2023/07/30 05:42:52;;;;;;;18.95;6.63;;;;;;;14.31;100.00;100751.47;4991335;28;20108;-72
2023/07/30 05:45:19;;;;;;;16.38;5.25;;;;;;;14.43;100.00;100767.53;4989866;28;20048;-72
2023/07/30 05:47:45;;;;;;;22.55;8.38;;;;;;;14.51;100.00;100766.09;4990475;28;20062;-72
2023/07/30 05:50:12;;;;;;;17.50;6.97;;;;;;;14.38;100.00;100765.28;4990197;28;20050;-72
2023/07/30 05:52:38;;;;;;;18.35;6.88;;;;;;;14.40;100.00;100754.41;4991043;28;20458;-71
2023/07/30 05:55:05;;;;;;;24.05;7.65;;;;;;;14.51;100.00;100761.31;4990770;28;20077;-73
2023/07/30 05:57:32;;;;;;;24.13;6.90;;;;;;;14.42;100.00;100752.75;4993344;28;20477;-72
2023/07/30 05:59:58;;;;;;;22.60;7.55;;;;;;;14.57;100.00;100762.34;4986893;28;20064;-73
2023/07/30 06:02:25;;;;;;;19.55;6.15;;;;;;;14.42;100.00;100758.34;4989907;28;20521;-75
2023/07/30 06:04:51;;;;;;;5.80;2.10;;;;;;;14.46;100.00;100775.06;4987689;28;20089;-70
2023/07/30 06:07:18;;;;;;;18.95;5.93;;;;;;;14.50;100.00;100765.34;4990413;28;20464;-71
2023/07/30 06:09:45;;;;;;;13.18;3.10;;;;;;;14.50;100.00;100765.34;4990673;28;20047;-72
2023/07/30 06:12:11;;;;;;;19.35;6.40;;;;;;;14.55;100.00;100772.41;4989827;28;20129;-73
2023/07/30 06:14:38;;;;;;;18.27;5.60;;;;;;;14.50;100.00;100778.53;4990459;28;20104;-73
2023/07/30 06:17:05;;;;;;;12.35;3.88;;;;;;;14.62;100.00;100769.41;4988044;28;20051;-73
2023/07/30 06:19:32;;;;;;;10.35;3.63;;;;;;;14.55;100.00;100769.59;4989514;28;20502;-72
2023/07/30 06:21:58;;;;;;;11.40;3.90;;;;;;;14.62;100.00;100767.38;4990328;28;20073;-73
2023/07/30 06:24:25;;;;;;;18.20;5.45;;;;;;;14.53;100.00;100769.25;4990228;28;20046;-73
2023/07/30 06:26:51;;;;;;;15.70;4.97;;;;;;;14.61;100.00;100776.19;4990191;28;20054;-72
2023/07/30 06:29:18;;;;;;;23.23;6.80;;;;;;;14.76;100.00;100778.13;4990277;28;20046;-72
2023/07/30 06:31:44;;;;;;;17.92;5.72;;;;;;;14.69;100.00;100783.94;4990091;28;20062;-73
2023/07/30 06:34:11;;;;;;;24.35;6.57;;;;;;;14.74;100.00;100783.41;4986762;28;20046;-72
2023/07/30 06:36:38;;;;;;;18.80;6.57;;;;;;;14.90;100.00;100785.34;4984582;28;20073;-72
2023/07/30 06:39:04;;;;;;;24.88;7.57;;;;;;;14.87;100.00;100789.03;4987324;28;20599;-73
2023/07/30 06:41:31;;;;;;;17.23;6.38;;;;;;;14.83;100.00;100777.16;4989597;28;20107;-72
2023/07/30 06:43:57;;;;;;;10.52;3.25;;;;;;;14.73;100.00;100781.84;4991256;28;20207;-72
2023/07/30 06:46:24;;;;;;;18.48;5.68;;;;;;;14.71;100.00;100780.72;4984663;28;20053;-74
2023/07/30 06:48:50;;;;;;;11.20;4.45;;;;;;;14.75;100.00;100786.97;4989128;28;20054;-75
2023/07/30 06:51:23;;;;;;;25.35;6.85;;;;;;;14.85;100.00;100788.69;4988875;28;20050;-74
2023/07/30 06:53:50;;;;;;;20.00;5.75;;;;;;;14.75;100.00;100795.38;4987733;28;20052;-75
2023/07/30 06:56:16;;;;;;;17.05;5.30;;;;;;;14.73;100.00;100795.06;4988448;28;20104;-75
2023/07/30 06:58:43;;;;;;;17.67;4.97;;;;;;;14.78;100.00;100789.69;4989577;28;20148;-73
2023/07/30 07:01:09;;;;;;;16.38;5.78;;;;;;;14.83;100.00;100782.75;4987530;28;20581;-75
2023/07/30 07:03:36;;;;;;;21.35;6.03;;;;;;;14.89;100.00;100792.19;4989097;28;20514;-74
2023/07/30 07:06:03;;;;;;;19.25;6.00;;;;;;;14.91;100.00;100796.09;4989655;28;20038;-75
2023/07/30 07:08:29;;;;;;;21.10;6.95;;;;;;;14.87;100.00;100808.63;4989709;28;20054;-75
2023/07/30 07:10:56;;;;;;;21.05;6.13;;;;;;;14.85;100.00;100802.69;4987208;28;20470;-74
2023/07/30 07:13:22;;;;;;;18.42;6.80;;;;;;;14.83;100.00;100805.91;4987923;28;20082;-75
2023/07/30 07:15:49;;;;;;;17.00;5.22;;;;;;;14.86;100.00;100795.88;4988052;28;20157;-75
2023/07/30 07:18:15;;;;;;;13.73;3.15;;;;;;;14.84;100.00;100807.50;4989005;28;20081;-74
2023/07/30 07:20:42;;;;;;;7.75;3.42;;;;;;;14.84;100.00;100817.91;4989288;28;20510;-74
2023/07/30 07:23:09;;;;;;;18.92;6.95;;;;;;;14.87;100.00;100811.44;4987040;28;20074;-74
2023/07/30 07:25:39;;;;;;;20.17;5.45;;;;;;;14.91;100.00;100817.69;4984987;28;20699;-73
2023/07/30 07:28:05;;;;;;;15.20;5.85;;;;;;;14.94;100.00;100816.81;4989155;28;20050;-75
2023/07/30 07:30:36;;;;;;;23.00;5.63;;;;;;;14.86;100.00;100810.63;4988582;28;20050;-72
2023/07/30 07:33:03;;;;;;;11.18;3.35;;;;;;;14.74;100.00;100819.78;4986562;28;20046;-75
2023/07/30 07:35:29;;;;;;;14.40;5.40;;;;;;;14.97;100.00;100824.31;4988757;28;20050;-75
2023/07/30 07:37:57;;;;;;;16.25;5.03;;;;;;;14.91;100.00;100823.31;4989091;28;20128;-74
2023/07/30 07:40:23;;;;;;;13.77;2.88;;;;;;;14.76;100.00;100828.53;4986743;28;20046;-74
2023/07/30 07:42:50;;;;;;;10.30;3.28;;;;;;;14.84;100.00;100818.72;4988421;28;20681;-74
2023/07/30 07:45:17;;;;;;;3.78;1.15;;;;;;;14.87;100.00;100820.63;4986162;28;20042;-74
2023/07/30 07:47:44;;;;;;;12.38;3.83;;;;;;;14.88;100.00;100815.78;4988603;28;20076;-74
2023/07/30 07:50:11;;;;;;;10.00;4.05;;;;;;;14.94;100.00;100823.22;4983010;28;20061;-74
2023/07/30 07:52:37;;;;;;;9.13;2.40;;;;;;;15.01;100.00;100825.00;4988667;28;20057;-73
2023/07/30 07:55:05;;;;;;;11.93;3.92;;;;;;;15.05;100.00;100820.06;4988140;28;20085;-73
2023/07/30 07:57:32;;;;;;;16.33;4.22;;;;;;;15.07;100.00;100823.22;4985181;28;20081;-75
2023/07/30 07:59:58;;;;;;;9.93;3.45;;;;;;;15.08;100.00;100822.00;4986130;28;20553;-74
2023/07/30 08:02:25;;;;;;;12.90;4.15;;;;;;;15.16;100.00;100812.16;4988727;28;20132;-74
2023/07/30 08:04:51;;;;;;;16.77;4.53;;;;;;;15.32;100.00;100825.28;4985400;28;20061;-74
2023/07/30 08:07:18;;;;;;;16.77;2.35;;;;;;;15.31;100.00;100821.69;4986070;28;20092;-74
2023/07/30 08:09:44;;;;;;;11.63;3.42;;;;;;;15.30;100.00;100828.53;4986490;28;20077;-74
2023/07/30 08:12:12;;;;;;;10.07;3.10;;;;;;;15.34;100.00;100826.41;4986004;28;20050;-74
2023/07/30 08:14:39;;;;;;;14.90;3.72;;;;;;;15.45;100.00;100824.06;4985634;28;20129;-75
2023/07/30 08:17:05;;;;;;;12.10;4.00;;;;;;;15.47;100.00;100816.00;4981884;28;20060;-74
2023/07/30 08:19:32;;;;;;;9.35;3.17;;;;;;;15.53;100.00;100827.44;4978380;28;20054;-73
2023/07/30 08:21:58;;;;;;;4.68;1.90;;;;;;;15.63;100.00;100821.47;4986413;28;20050;-74
2023/07/30 08:24:25;;;;;;;14.90;4.70;;;;;;;15.84;100.00;100808.78;4985579;28;20095;-74
2023/07/30 08:26:51;;;;;;;10.65;2.35;;;;;;;15.77;100.00;100818.22;4990276;28;20054;-74
2023/07/30 08:29:18;;;;;;;12.63;3.20;;;;;;;15.76;100.00;100805.44;4992404;28;20101;-74
2023/07/30 08:31:45;;;;;;;15.25;4.88;;;;;;;15.92;100.00;100802.50;4991424;28;20053;-73
2023/07/30 08:34:11;;;;;;;18.83;4.68;;;;;;;15.96;100.00;100800.34;4990890;28;20613;-74
2023/07/30 08:36:38;;;;;;;10.57;3.65;;;;;;;15.82;100.00;100798.03;4992270;28;20082;-74
2023/07/30 08:39:05;;;;;;;7.00;2.50;;;;;;;15.90;100.00;100798.59;4993113;28;20445;-74
2023/07/30 08:41:32;;;;;;;9.88;2.55;;;;;;;15.93;100.00;100798.44;4990764;28;20159;-74
2023/07/30 08:43:59;;;;;;;8.30;3.08;;;;;;;16.05;100.00;100794.03;4990103;28;20954;-75
2023/07/30 08:46:26;;;;;;;8.05;2.38;;;;;;;16.13;100.00;100803.81;4991503;28;20050;-74
2023/07/30 08:48:54;;;;;;;6.95;2.22;;;;;;;16.21;100.00;100796.69;4990253;28;20050;-72
2023/07/30 08:51:21;;;;;;;11.30;3.33;;;;;;;16.14;100.00;100791.34;4986678;28;20112;-77
2023/07/30 08:53:48;;;;;;;11.15;3.83;;;;;;;16.36;100.00;100795.75;4991572;28;20053;-77
2023/07/30 08:56:15;;;;;;;14.40;4.55;;;;;;;16.33;100.00;100793.06;4990842;28;20117;-77
2023/07/30 08:58:43;;;;;;;16.27;4.45;;;;;;;16.43;100.00;100795.50;4987362;28;20500;-75
2023/07/30 09:01:11;;;;;;;15.77;4.38;;;;;;;16.44;100.00;100799.88;4987786;28;20093;-77
2023/07/30 09:03:40;;;;;;;12.32;4.35;;;;;;;16.44;100.00;100808.28;4986512;28;20148;-76
2023/07/30 09:06:07;;;;;;;16.02;4.78;;;;;;;16.38;100.00;100804.53;4991110;28;20058;-74
2023/07/30 09:08:34;;;;;;;8.65;3.03;;;;;;;16.32;100.00;100809.16;4990617;28;20054;-73
2023/07/30 09:11:08;;;;;;;17.85;5.22;;;;;;;16.22;100.00;100815.88;4988164;28;20660;-75
2023/07/30 09:13:39;;;;;;;17.02;4.65;;;;;;;16.33;100.00;100833.16;4986422;28;20050;-75
2023/07/30 09:16:11;;;;;;;7.03;2.55;;;;;;;16.16;100.00;100828.91;4978998;28;20096;-74
2023/07/30 09:18:42;;;;;;;15.60;4.20;;;;;;;16.30;100.00;100816.44;4986998;28;20065;-74
2023/07/30 09:21:13;;;;;;;18.88;4.50;;;;;;;16.38;100.00;100826.19;4985315;28;20751;-71
2023/07/30 09:23:44;;;;;;;10.77;2.53;;;;;;;16.38;100.00;100823.38;4988295;28;20229;-74
2023/07/30 09:26:12;;;;;;;11.43;2.33;;;;;;;16.59;100.00;100822.59;4990099;28;20077;-74
2023/07/30 09:28:41;;;;;;;16.48;5.32;;;;;;;16.95;100.00;100829.25;4990824;28;20129;-74
2023/07/30 09:31:09;;;;;;;4.07;1.42;;;;;;;17.01;100.00;100821.81;4988487;28;20050;-73
2023/07/30 09:33:41;;;;;;;15.45;4.40;;;;;;;17.20;100.00;100815.09;4987915;28;20042;-74
2023/07/30 09:36:08;;;;;;;17.27;4.30;;;;;;;17.50;100.00;100815.50;4989207;28;20093;-74
2023/07/30 09:38:39;;;;;;;18.00;4.43;;;;;;;17.68;100.00;100810.75;4989872;28;20132;-74
2023/07/30 09:41:06;;;;;;;20.75;3.85;;;;;;;17.81;100.00;100810.59;4986310;28;20549;-74
2023/07/30 09:43:33;;;;;;;15.45;4.38;;;;;;;18.01;100.00;100811.00;4989333;28;20112;-73
2023/07/30 09:46:04;;;;;;;9.65;3.08;;;;;;;17.82;100.00;100809.38;4986636;28;20574;-74
2023/07/30 09:48:32;;;;;;;10.20;2.47;;;;;;;17.72;100.00;100804.97;4988840;28;20578;-75
2023/07/30 09:51:00;;;;;;;15.15;3.60;;;;;;;18.01;100.00;100796.94;4976026;28;20116;-74
2023/07/30 09:53:29;;;;;;;15.95;2.55;;;;;;;17.98;100.00;100790.22;4988566;28;20529;-74
2023/07/30 09:55:55;;;;;;;1.60;1.15;;;;;;;18.14;100.00;100800.41;4987593;28;20133;-74
2023/07/30 09:58:22;;;;;;;5.25;1.45;;;;;;;18.12;100.00;100798.06;4990689;28;20158;-74
2023/07/30 10:00:49;;;;;;;8.73;2.58;;;;;;;18.23;100.00;100789.91;4990448;28;20071;-74
2023/07/30 10:03:17;;;;;;;5.38;1.50;;;;;;;18.18;100.00;100795.38;4990248;28;20047;-72
2023/07/30 10:05:45;;;;;;;13.80;2.65;;;;;;;18.46;100.00;100788.53;4989113;28;20046;-74
2023/07/30 10:08:19;;;;;;;8.80;2.15;;;;;;;18.22;100.00;100796.81;4990463;28;20781;-74
2023/07/30 10:10:47;;;;;;;9.17;2.30;;;;;;;18.18;100.00;100784.94;4987923;28;20057;-74
2023/07/30 10:13:16;;;;;;;5.80;1.60;;;;;;;18.32;100.00;100789.13;4989571;28;20594;-73
2023/07/30 10:15:43;;;;;;;4.53;1.30;;;;;;;18.46;100.00;100792.13;4981771;28;20050;-74
2023/07/30 10:18:10;;;;;;;9.43;2.95;;;;;;;18.41;100.00;100786.34;4987780;28;20054;-73
2023/07/30 10:20:37;;;;;;;6.78;2.38;;;;;;;18.59;100.00;100791.94;4989991;28;20050;-74
2023/07/30 10:23:05;;;;;;;4.75;1.98;;;;;;;18.27;100.00;100798.22;4990405;28;20046;-74
2023/07/30 10:25:49;;;;;;;9.65;2.22;;;;;;;18.58;100.00;100782.75;4990337;28;20120;-74
2023/07/30 10:28:36;;;;;;;10.68;2.00;;;;;;;18.86;100.00;100772.22;4990367;28;20054;-73
2023/07/30 10:31:09;;;;;;;14.98;2.13;;;;;;;19.03;100.00;100776.25;4986430;28;20614;-73
2023/07/30 10:33:53;;;;;;;11.82;2.22;;;;;;;18.92;100.00;100773.16;4977342;28;20050;-73
2023/07/30 10:36:43;;;;;;;11.50;2.83;;;;;;;18.82;100.00;100782.88;4986961;28;20049;-75
2023/07/30 10:39:24;;;;;;;7.03;2.22;;;;;;;18.46;100.00;100783.66;4986007;28;20725;-74
2023/07/30 10:41:53;;;;;;;6.57;1.77;;;;;;;18.29;100.00;100765.53;4984406;28;20475;-73
2023/07/30 10:44:25;;;;;;;7.22;1.58;;;;;;;18.24;100.00;100777.44;4978941;28;20050;-75
2023/07/30 10:46:57;;;;;;;3.63;1.27;;;;;;;18.18;100.00;100784.13;4983884;28;20073;-75
2023/07/30 10:49:24;;;;;;;4.47;0.90;;;;;;;18.03;100.00;100777.56;4977447;28;20055;-73
2023/07/30 10:51:53;;;;;;;4.00;1.58;;;;;;;18.02;100.00;100788.03;4985909;28;20058;-74
2023/07/30 10:54:19;;;;;;;10.32;2.55;;;;;;;18.09;100.00;100795.41;4986205;28;20074;-74
2023/07/30 10:56:46;;;;;;;6.72;2.03;;;;;;;18.06;100.00;100783.03;4984840;28;20054;-75
2023/07/30 10:59:14;;;;;;;6.30;1.95;;;;;;;17.97;100.00;100791.47;4988333;28;20050;-76
2023/07/30 11:01:43;;;;;;;3.53;0.85;;;;;;;18.18;100.00;100790.56;4987907;28;20046;-75
2023/07/30 11:04:20;;;;;;;13.27;2.50;;;;;;;18.20;100.00;100790.09;4988169;28;20128;-74
2023/07/30 11:06:51;;;;;;;7.38;1.60;;;;;;;18.25;100.00;100783.81;4981211;28;20142;-74
2023/07/30 11:09:25;;;;;;;5.47;1.17;;;;;;;18.38;100.00;100771.19;4987550;28;20097;-69
2023/07/30 11:11:55;;;;;;;12.30;1.70;;;;;;;18.65;100.00;100778.81;4985736;28;20054;-74